Swett, South Dakota
Current Conditions -  °F | °C
As of 12:52 AM on Friday 19 Dec 2014 (Local Time) from KIEN Reporting Station
Clear Clear  
Wind Chill: 26°   Ceiling: Unl
Heat Index: 26°   Visibility: 10mi
Dew Point: 17°   Wind: 0mph
Humidity: 69%   Direction: NA
Pressure: 30.03"   Gusts: NA
Location:  43.2013°N, 101.679°W
Report Text: KIEN 190752Z AUTO 00000KT 10SM CLR M03/M08 A3003 RMK AO2 SLP196 T10331083
Loading
Personal Weather Stations






























Interactive Weather Map New forecast layout! Learn more

10-Day Weather Forecast

Advertisements
Track Severe Weather on mobile